Time,TemperatureF,DewpointF,PressureIn,WindDirection,WindDirectionDegrees,WindSpeedMPH,WindSpeedGustMPH,Humidity,HourlyPrecipIn,Conditions,Clouds,dailyrainin,SoftwareType,DateUTC
2013-01-04 00:00:00,16.2,10.6,29.93,SW,225,0.0,4.0,78,0.00,,,-99.99,Weather View 32 v60,2013-01-04 05:00:00,
2013-01-04 00:05:00,16.1,10.5,29.92,SSW,203,0.0,4.0,78,0.00,,,-99.99,Weather View 32 v60,2013-01-04 05:05:00,
2013-01-04 00:10:00,16.0,10.4,29.92,SW,225,0.0,4.0,78,0.00,,,-99.99,Weather View 32 v60,2013-01-04 05:10:00,
2013-01-04 00:15:00,15.9,10.3,29.92,SSW,203,0.0,4.0,78,0.00,,,-99.99,Weather View 32 v60,2013-01-04 05:15:00,
2013-01-04 00:20:00,15.9,10.5,29.92,SW,225,0.0,4.0,79,0.00,,,-99.99,Weather View 32 v60,2013-01-04 05:20:00,
2013-01-04 00:25:00,15.8,10.4,29.93,SW,225,0.0,2.0,79,0.00,,,-99.99,Weather View 32 v60,2013-01-04 05:25:00,
2013-01-04 00:30:00,15.8,10.4,29.92,SSW,203,0.0,1.0,79,0.00,,,-99.99,Weather View 32 v60,2013-01-04 05:30:00,
2013-01-04 00:35:00,15.7,10.4,29.92,SW,225,0.0,3.0,79,0.00,,,-99.99,Weather View 32 v60,2013-01-04 05:35:00,
2013-01-04 00:40:00,15.7,10.4,29.92,SSW,203,0.0,3.0,79,0.00,,,-99.99,Weather View 32 v60,2013-01-04 05:40:00,
2013-01-04 00:45:00,15.6,10.3,29.93,SW,225,0.0,3.0,79,0.00,,,-99.99,Weather View 32 v60,2013-01-04 05:45:00,
2013-01-04 00:50:00,15.5,10.2,29.93,SSW,203,0.0,3.0,79,0.00,,,-99.99,Weather View 32 v60,2013-01-04 05:50:00,
2013-01-04 00:55:00,15.4,10.1,29.93,SSW,203,0.0,3.0,79,0.00,,,-99.99,Weather View 32 v60,2013-01-04 05:55:00,
2013-01-04 01:00:00,15.4,10.3,29.93,SSW,203,0.0,3.0,80,0.00,,,-99.99,Weather View 32 v60,2013-01-04 06:00:00,
2013-01-04 01:05:00,15.3,10.2,29.93,SSW,203,0.0,3.0,80,0.00,,,-99.99,Weather View 32 v60,2013-01-04 06:05:00,
2013-01-04 01:10:00,15.2,10.1,29.93,SSW,203,0.0,3.0,80,0.00,,,-99.99,Weather View 32 v60,2013-01-04 06:10:00,
2013-01-04 01:15:00,15.1,10.0,29.93,SSW,203,0.0,3.0,80,0.00,,,-99.99,Weather View 32 v60,2013-01-04 06:15:00,
2013-01-04 01:20:00,15.0,10.0,29.93,SSW,203,0.0,3.0,80,0.00,,,-99.99,Weather View 32 v60,2013-01-04 06:20:00,
2013-01-04 01:25:00,15.0,10.0,29.92,SSW,203,0.0,3.0,80,0.00,,,-99.99,Weather View 32 v60,2013-01-04 06:25:00,
2013-01-04 01:30:00,14.9,9.9,29.92,SSW,203,0.0,3.0,80,0.00,,,-99.99,Weather View 32 v60,2013-01-04 06:30:00,
2013-01-04 01:35:00,14.9,10.1,29.92,SSW,203,0.0,1.0,81,0.00,,,-99.99,Weather View 32 v60,2013-01-04 06:35:00,
2013-01-04 01:40:00,14.8,10.0,29.92,SSW,203,0.0,2.0,81,0.00,,,-99.99,Weather View 32 v60,2013-01-04 06:40:00,
2013-01-04 01:45:00,14.7,9.9,29.93,SSW,203,0.0,2.0,81,0.00,,,-99.99,Weather View 32 v60,2013-01-04 06:45:00,
2013-01-04 01:50:00,14.6,9.8,29.92,SSW,203,0.0,2.0,81,0.00,,,-99.99,Weather View 32 v60,2013-01-04 06:50:00,
2013-01-04 01:55:00,14.5,9.7,29.92,SSW,203,0.0,2.0,81,0.00,,,-99.99,Weather View 32 v60,2013-01-04 06:55:00,
2013-01-04 02:00:00,14.5,10.0,29.92,SSW,203,0.0,2.0,82,0.00,,,-99.99,Weather View 32 v60,2013-01-04 07:00:00,
2013-01-04 02:05:00,14.4,9.9,29.92,SSW,203,0.0,2.0,82,0.00,,,-99.99,Weather View 32 v60,2013-01-04 07:05:00,
2013-01-04 02:10:00,14.4,9.9,29.92,South,180,0.0,2.0,82,0.00,,,-99.99,Weather View 32 v60,2013-01-04 07:10:00,
2013-01-04 02:15:00,14.4,10.2,29.92,South,180,0.0,2.0,83,0.00,,,-99.99,Weather View 32 v60,2013-01-04 07:15:00,
2013-01-04 02:20:00,14.4,10.2,29.91,South,180,0.0,2.0,83,0.00,,,-99.99,Weather View 32 v60,2013-01-04 07:20:00,
2013-01-04 02:25:00,14.3,10.1,29.91,South,180,0.0,2.0,83,0.00,,,-99.99,Weather View 32 v60,2013-01-04 07:25:00,
2013-01-04 02:30:00,14.2,10.0,29.91,South,180,0.0,2.0,83,0.00,,,-99.99,Weather View 32 v60,2013-01-04 07:30:00,
2013-01-04 02:35:00,14.2,10.3,29.91,South,180,0.0,2.0,84,0.00,,,-99.99,Weather View 32 v60,2013-01-04 07:35:00,
2013-01-04 02:40:00,14.1,10.2,29.90,SSE,158,0.0,1.0,84,0.00,,,-99.99,Weather View 32 v60,2013-01-04 07:40:00,
2013-01-04 02:45:00,14.1,10.2,29.90,SSE,158,0.0,1.0,84,0.00,,,-99.99,Weather View 32 v60,2013-01-04 07:45:00,
2013-01-04 02:50:00,14.1,10.2,29.90,SSE,158,0.0,2.0,84,0.00,,,-99.99,Weather View 32 v60,2013-01-04 07:50:00,
2013-01-04 02:55:00,14.0,10.1,29.90,South,180,0.0,2.0,84,0.00,,,-99.99,Weather View 32 v60,2013-01-04 07:55:00,
2013-01-04 03:00:00,14.0,10.3,29.90,SSE,158,0.0,3.0,85,0.00,,,-99.99,Weather View 32 v60,2013-01-04 08:00:00,
2013-01-04 03:05:00,14.0,10.3,29.90,SSE,158,0.0,3.0,85,0.00,,,-99.99,Weather View 32 v60,2013-01-04 08:05:00,
2013-01-04 03:10:00,14.0,10.3,29.90,SSE,158,0.0,3.0,85,0.00,,,-99.99,Weather View 32 v60,2013-01-04 08:10:00,
2013-01-04 03:15:00,13.9,10.2,29.90,SSE,158,0.0,3.0,85,0.00,,,-99.99,Weather View 32 v60,2013-01-04 08:15:00,
2013-01-04 03:20:00,13.8,10.1,29.90,SSE,158,0.0,3.0,85,0.00,,,-99.99,Weather View 32 v60,2013-01-04 08:20:00,
2013-01-04 03:25:00,13.8,10.1,29.90,SSE,158,0.0,3.0,85,0.00,,,-99.99,Weather View 32 v60,2013-01-04 08:25:00,
2013-01-04 03:30:00,13.7,10.0,29.90,SSE,158,0.0,3.0,85,0.00,,,-99.99,Weather View 32 v60,2013-01-04 08:30:00,
2013-01-04 03:35:00,13.6,9.9,29.90,SSE,158,0.0,3.0,85,0.00,,,-99.99,Weather View 32 v60,2013-01-04 08:35:00,
2013-01-04 03:40:00,13.6,9.9,29.90,SSE,158,0.0,3.0,85,0.00,,,-99.99,Weather View 32 v60,2013-01-04 08:40:00,
2013-01-04 03:45:00,13.7,10.3,29.90,SSE,158,0.0,3.0,86,0.00,,,-99.99,Weather View 32 v60,2013-01-04 08:45:00,
2013-01-04 03:50:00,13.7,10.3,29.90,SSE,158,0.0,3.0,86,0.00,,,-99.99,Weather View 32 v60,2013-01-04 08:50:00,
2013-01-04 03:55:00,13.8,10.7,29.90,SSE,158,0.0,3.0,87,0.00,,,-99.99,Weather View 32 v60,2013-01-04 08:55:00,
2013-01-04 04:00:00,13.9,10.8,29.90,SSE,158,0.0,2.0,87,0.00,,,-99.99,Weather View 32 v60,2013-01-04 09:00:00,
2013-01-04 04:05:00,14.0,10.9,29.90,SSE,158,0.0,3.0,87,0.00,,,-99.99,Weather View 32 v60,2013-01-04 09:05:00,
2013-01-04 04:10:00,14.1,10.9,29.90,South,180,0.0,4.0,87,0.00,,,-99.99,Weather View 32 v60,2013-01-04 09:10:00,
2013-01-04 04:15:00,14.1,10.9,29.90,SSW,203,0.0,4.0,87,0.00,,,-99.99,Weather View 32 v60,2013-01-04 09:15:00,
2013-01-04 04:25:00,14.2,11.0,29.90,South,180,0.0,4.0,87,0.00,,,-99.99,Weather View 32 v60,2013-01-04 09:25:00,
2013-01-04 04:30:00,14.2,11.0,29.89,SSW,203,0.0,4.0,87,0.00,,,-99.99,Weather View 32 v60,2013-01-04 09:30:00,
2013-01-04 04:35:00,14.2,11.0,29.90,SSW,203,0.0,4.0,87,0.00,,,-99.99,Weather View 32 v60,2013-01-04 09:35:00,
2013-01-04 05:05:00,14.2,11.3,29.90,SE,135,0.0,4.0,88,0.00,,,-99.99,Weather View 32 v60,2013-01-04 10:05:00,
2013-01-04 05:10:00,14.3,11.7,29.90,North,0,0.0,3.0,89,0.00,,,-99.99,Weather View 32 v60,2013-01-04 10:10:00,
2013-01-04 05:20:00,14.1,10.9,29.90,South,180,0.0,4.0,87,0.00,,,-99.99,Weather View 32 v60,2013-01-04 10:20:00,
2013-01-04 05:25:00,14.6,12.2,29.90,SSE,158,0.0,3.0,90,0.00,,,-99.99,Weather View 32 v60,2013-01-04 10:25:00,
2013-01-04 05:30:00,14.2,11.0,29.89,SSW,203,0.0,4.0,87,0.00,,,-99.99,Weather View 32 v60,2013-01-04 10:30:00,
2013-01-04 05:40:00,14.1,10.9,29.90,SSW,203,0.0,4.0,87,0.00,,,-99.99,Weather View 32 v60,2013-01-04 10:40:00,
2013-01-04 05:50:00,14.1,11.2,29.90,South,180,0.0,4.0,88,0.00,,,-99.99,Weather View 32 v60,2013-01-04 10:50:00,
2013-01-04 05:55:00,14.1,11.2,29.90,South,180,0.0,4.0,88,0.00,,,-99.99,Weather View 32 v60,2013-01-04 10:55:00,
2013-01-04 06:00:00,14.2,11.3,29.90,South,180,0.0,4.0,88,0.00,,,-99.99,Weather View 32 v60,2013-01-04 11:00:00,
2013-01-04 06:15:00,14.4,11.8,29.90,North,0,0.0,3.0,89,0.00,,,-99.99,Weather View 32 v60,2013-01-04 11:15:00,
2013-01-04 06:20:00,16.5,14.3,29.91,NNE,23,0.0,3.0,91,0.00,,,-99.99,Weather View 32 v60,2013-01-04 11:20:00,
2013-01-04 06:30:00,14.8,12.4,29.90,SSE,158,0.0,3.0,90,0.00,,,-99.99,Weather View 32 v60,2013-01-04 11:30:00,
2013-01-04 06:35:00,15.0,12.6,29.90,SSE,158,0.0,3.0,90,0.00,,,-99.99,Weather View 32 v60,2013-01-04 11:35:00,
2013-01-04 06:40:00,15.1,12.7,29.90,SSW,203,0.0,3.0,90,0.00,,,-99.99,Weather View 32 v60,2013-01-04 11:40:00,
2013-01-04 06:50:00,15.4,13.0,29.91,NW,315,0.0,3.0,90,0.00,,,-99.99,Weather View 32 v60,2013-01-04 11:50:00,
2013-01-04 06:55:00,15.6,13.2,29.91,WNW,293,0.0,3.0,90,0.00,,,-99.99,Weather View 32 v60,2013-01-04 11:55:00,
2013-01-04 07:00:00,15.7,13.5,29.91,WNW,293,0.0,3.0,91,0.00,,,-99.99,Weather View 32 v60,2013-01-04 12:00:00,
2013-01-04 07:10:00,16.1,13.9,29.91,WNW,293,0.0,3.0,91,0.00,,,-99.99,Weather View 32 v60,2013-01-04 12:10:00,
2013-01-04 07:15:00,16.3,14.1,29.91,NNW,338,2.0,3.0,91,0.00,,,-99.99,Weather View 32 v60,2013-01-04 12:15:00,
2013-01-04 07:25:00,16.8,14.9,29.91,NW,315,0.0,4.0,92,0.00,,,-99.99,Weather View 32 v60,2013-01-04 12:25:00,
2013-01-04 07:30:00,17.2,15.3,29.91,SW,225,0.0,4.0,92,0.00,,,-99.99,Weather View 32 v60,2013-01-04 12:30:00,
2013-01-04 07:35:00,17.5,15.6,29.91,SSW,203,0.0,4.0,92,0.00,,,-99.99,Weather View 32 v60,2013-01-04 12:35:00,
2013-01-04 07:45:00,18.5,16.8,29.91,SW,225,0.0,4.0,93,0.00,,,-99.99,Weather View 32 v60,2013-01-04 12:45:00,
2013-01-04 07:55:00,19.6,17.9,29.92,WSW,248,0.0,4.0,93,0.00,,,-99.99,Weather View 32 v60,2013-01-04 12:55:00,
2013-01-04 08:05:00,20.7,18.7,29.92,SSW,203,0.0,6.0,92,0.00,,,-99.99,Weather View 32 v60,2013-01-04 13:05:00,
2013-01-04 08:10:00,21.2,19.2,29.92,West,270,3.0,6.0,92,0.00,,,-99.99,Weather View 32 v60,2013-01-04 13:10:00,
2013-01-04 08:15:00,21.8,19.8,29.92,SW,225,1.0,7.0,92,0.00,,,-99.99,Weather View 32 v60,2013-01-04 13:15:00,
2013-01-04 08:20:00,22.5,20.5,29.92,SW,225,2.0,7.0,92,0.00,,,-99.99,Weather View 32 v60,2013-01-04 13:20:00,
2013-01-04 08:25:00,23.1,20.9,29.92,WSW,248,1.0,7.0,91,0.00,,,-99.99,Weather View 32 v60,2013-01-04 13:25:00,
2013-01-04 08:30:00,23.7,21.5,29.91,WSW,248,3.0,7.0,91,0.00,,,-99.99,Weather View 32 v60,2013-01-04 13:30:00,
2013-01-04 08:35:00,24.2,21.7,29.91,SSW,203,1.0,7.0,90,0.00,,,-99.99,Weather View 32 v60,2013-01-04 13:35:00,
2013-01-04 08:45:00,25.2,22.4,29.91,SSE,158,3.0,7.0,89,0.00,,,-99.99,Weather View 32 v60,2013-01-04 13:45:00,
2013-01-04 08:50:00,25.7,22.6,29.91,WNW,293,2.0,7.0,88,0.00,,,-99.99,Weather View 32 v60,2013-01-04 13:50:00,
2013-01-04 08:55:00,26.3,23.0,29.91,SSW,203,1.0,7.0,87,0.00,,,-99.99,Weather View 32 v60,2013-01-04 13:55:00,
2013-01-04 09:15:00,27.8,23.3,29.91,SW,225,6.0,11.0,83,0.00,,,-99.99,Weather View 32 v60,2013-01-04 14:15:00,
2013-01-04 09:25:00,28.3,23.2,29.90,SSW,203,5.0,11.0,81,0.00,,,-99.99,Weather View 32 v60,2013-01-04 14:25:00,
2013-01-04 09:30:00,28.4,23.3,29.90,SW,225,5.0,11.0,81,0.00,,,-99.99,Weather View 32 v60,2013-01-04 14:30:00,
2013-01-04 09:36:00,28.6,23.2,29.90,West,270,3.0,11.0,80,0.00,,,-99.99,Weather View 32 v60,2013-01-04 14:36:00,
2013-01-04 09:45:00,28.9,23.2,29.90,SSW,203,6.0,11.0,79,0.00,,,-99.99,Weather View 32 v60,2013-01-04 14:45:00,
2013-01-04 09:50:00,29.1,23.4,29.90,SW,225,3.0,11.0,79,0.00,,,-99.99,Weather View 32 v60,2013-01-04 14:50:00,
2013-01-04 10:00:00,29.5,23.5,29.90,SSW,203,8.0,12.0,78,0.00,,,-99.99,Weather View 32 v60,2013-01-04 15:00:00,
2013-01-04 10:05:00,29.7,23.4,29.90,SW,225,4.0,12.0,77,0.00,,,-99.99,Weather View 32 v60,2013-01-04 15:05:00,
2013-01-04 10:15:00,30.3,23.6,29.90,SW,225,4.0,12.0,76,0.00,,,-99.99,Weather View 32 v60,2013-01-04 15:15:00,
2013-01-04 10:20:00,30.5,23.5,29.89,SSW,203,6.0,12.0,75,0.00,,,-99.99,Weather View 32 v60,2013-01-04 15:20:00,
2013-01-04 10:30:00,30.9,23.6,29.89,SSW,203,10.0,12.0,74,0.00,,,-99.99,Weather View 32 v60,2013-01-04 15:30:00,
2013-01-04 10:36:00,31.1,23.8,29.88,SW,225,2.0,12.0,74,0.00,,,-99.99,Weather View 32 v60,2013-01-04 15:36:00,
2013-01-04 10:45:00,31.5,23.8,29.87,South,180,3.0,12.0,73,0.00,,,-99.99,Weather View 32 v60,2013-01-04 15:45:00,
2013-01-04 10:55:00,31.8,23.8,29.87,SW,225,1.0,12.0,72,0.00,,,-99.99,Weather View 32 v60,2013-01-04 15:55:00,
2013-01-04 11:00:00,32.0,23.7,29.87,SW,225,5.0,12.0,71,0.00,,,-99.99,Weather View 32 v60,2013-01-04 16:00:00,
2013-01-04 11:10:00,32.5,24.1,29.86,SW,225,3.0,12.0,71,0.00,,,-99.99,Weather View 32 v60,2013-01-04 16:10:00,
2013-01-04 11:15:00,32.8,24.1,29.85,SSW,203,6.0,13.0,70,0.00,,,-99.99,Weather View 32 v60,2013-01-04 16:15:00,
2013-01-04 11:25:00,33.2,24.1,29.85,SW,225,3.0,13.0,69,0.00,,,-99.99,Weather View 32 v60,2013-01-04 16:25:00,
2013-01-04 11:34:00,33.7,24.3,29.84,SW,225,4.0,13.0,68,0.00,,,-99.99,Weather View 32 v60,2013-01-04 16:34:00,
2013-01-04 11:40:00,33.9,24.1,29.84,SW,225,3.0,13.0,67,0.00,,,-99.99,Weather View 32 v60,2013-01-04 16:40:00,
2013-01-04 11:45:00,34.1,24.3,29.83,South,180,1.0,15.0,67,0.00,,,-99.99,Weather View 32 v60,2013-01-04 16:45:00,
2013-01-04 11:55:00,34.2,23.7,29.82,WNW,293,5.0,16.0,65,0.00,,,-99.99,Weather View 32 v60,2013-01-04 16:55:00,
2013-01-04 12:05:00,34.3,23.8,29.82,WNW,293,3.0,16.0,65,0.00,,,-99.99,Weather View 32 v60,2013-01-04 17:05:00,
2013-01-04 12:10:00,34.5,24.3,29.81,SSW,203,3.0,16.0,66,0.00,,,-99.99,Weather View 32 v60,2013-01-04 17:10:00,
2013-01-04 12:15:00,34.7,24.1,29.81,WNW,293,7.0,16.0,65,0.00,,,-99.99,Weather View 32 v60,2013-01-04 17:15:00,
2013-01-04 12:25:00,35.3,24.3,29.80,WSW,248,5.0,16.0,64,0.00,,,-99.99,Weather View 32 v60,2013-01-04 17:25:00,
2013-01-04 12:30:00,35.4,24.4,29.80,SW,225,5.0,16.0,64,0.00,,,-99.99,Weather View 32 v60,2013-01-04 17:30:00,
2013-01-04 12:38:00,35.5,24.1,29.79,SE,135,4.0,16.0,63,0.00,,,-99.99,Weather View 32 v60,2013-01-04 17:38:00,
2013-01-04 12:45:00,35.7,24.3,29.79,West,270,5.0,16.0,63,0.00,,,-99.99,Weather View 32 v60,2013-01-04 17:45:00,
2013-01-04 12:55:00,36.3,24.5,29.78,South,180,4.0,16.0,62,0.00,,,-99.99,Weather View 32 v60,2013-01-04 17:55:00,
2013-01-04 13:00:00,36.4,24.6,29.78,SSW,203,7.0,16.0,62,0.00,,,-99.99,Weather View 32 v60,2013-01-04 18:00:00,
2013-01-04 13:10:00,36.3,24.1,29.78,SSW,203,3.0,18.0,61,0.00,,,-99.99,Weather View 32 v60,2013-01-04 18:10:00,
2013-01-04 13:15:00,36.3,24.5,29.77,WSW,248,6.0,18.0,62,0.00,,,-99.99,Weather View 32 v60,2013-01-04 18:15:00,
2013-01-04 13:25:00,36.5,24.3,29.77,NNW,338,2.0,18.0,61,0.00,,,-99.99,Weather View 32 v60,2013-01-04 18:25:00,
2013-01-04 13:35:00,36.5,24.7,29.77,SW,225,2.0,18.0,62,0.00,,,-99.99,Weather View 32 v60,2013-01-04 18:35:00,
2013-01-04 13:40:00,36.6,24.8,29.77,SSW,203,3.0,18.0,62,0.00,,,-99.99,Weather View 32 v60,2013-01-04 18:40:00,
2013-01-04 13:45:00,36.6,24.8,29.77,West,270,4.0,18.0,62,0.00,,,-99.99,Weather View 32 v60,2013-01-04 18:45:00,
2013-01-04 13:55:00,36.5,24.7,29.77,SW,225,2.0,18.0,62,0.00,,,-99.99,Weather View 32 v60,2013-01-04 18:55:00,
2013-01-04 14:05:00,36.4,24.6,29.77,SSW,203,3.0,18.0,62,0.00,,,-99.99,Weather View 32 v60,2013-01-04 19:05:00,
2013-01-04 14:10:00,36.2,24.4,29.77,WSW,248,7.0,18.0,62,0.00,,,-99.99,Weather View 32 v60,2013-01-04 19:10:00,
2013-01-04 14:15:00,36.1,24.3,29.77,North,0,3.0,17.0,62,0.00,,,-99.99,Weather View 32 v60,2013-01-04 19:15:00,
2013-01-04 14:20:00,36.0,24.6,29.77,WSW,248,1.0,17.0,63,0.00,,,-99.99,Weather View 32 v60,2013-01-04 19:20:00,
2013-01-04 14:30:00,35.9,24.5,29.77,South,180,7.0,16.0,63,0.00,,,-99.99,Weather View 32 v60,2013-01-04 19:30:00,
2013-01-04 14:35:00,35.9,24.9,29.77,SSW,203,4.0,16.0,64,0.00,,,-99.99,Weather View 32 v60,2013-01-04 19:35:00,
2013-01-04 14:40:00,35.8,24.8,29.77,WSW,248,4.0,16.0,64,0.00,,,-99.99,Weather View 32 v60,2013-01-04 19:40:00,
2013-01-04 14:50:00,35.7,24.7,29.77,SSW,203,5.0,14.0,64,0.00,,,-99.99,Weather View 32 v60,2013-01-04 19:50:00,
2013-01-04 15:00:00,35.7,24.7,29.77,SW,225,3.0,14.0,64,0.00,,,-99.99,Weather View 32 v60,2013-01-04 20:00:00,
2013-01-04 15:10:00,35.5,25.3,29.77,WSW,248,3.0,12.0,66,0.00,,,-99.99,Weather View 32 v60,2013-01-04 20:10:00,
2013-01-04 15:15:00,35.4,25.2,29.77,SW,225,4.0,12.0,66,0.00,,,-99.99,Weather View 32 v60,2013-01-04 20:15:00,
2013-01-04 15:20:00,35.4,25.2,29.77,WNW,293,1.0,12.0,66,0.00,,,-99.99,Weather View 32 v60,2013-01-04 20:20:00,
2013-01-04 15:30:00,35.3,25.1,29.77,SW,225,4.0,12.0,66,0.00,,,-99.99,Weather View 32 v60,2013-01-04 20:30:00,
2013-01-04 15:39:00,35.2,25.3,29.77,NW,315,3.0,12.0,67,0.00,,,-99.99,Weather View 32 v60,2013-01-04 20:39:00,
2013-01-04 15:45:00,35.1,25.2,29.77,SW,225,1.0,11.0,67,0.00,,,-99.99,Weather View 32 v60,2013-01-04 20:45:00,
2013-01-04 15:50:00,35.0,25.1,29.77,SSW,203,1.0,10.0,67,0.00,,,-99.99,Weather View 32 v60,2013-01-04 20:50:00,
2013-01-04 16:00:00,34.7,25.2,29.77,SSW,203,1.0,10.0,68,0.00,,,-99.99,Weather View 32 v60,2013-01-04 21:00:00,
2013-01-04 16:10:00,34.4,24.9,29.77,SW,225,3.0,10.0,68,0.00,,,-99.99,Weather View 32 v60,2013-01-04 21:10:00,
2013-01-04 16:15:00,34.2,24.7,29.77,SW,225,3.0,10.0,68,0.00,,,-99.99,Weather View 32 v60,2013-01-04 21:15:00,
2013-01-04 16:25:00,33.8,24.7,29.77,SW,225,3.0,10.0,69,0.01,,,-99.99,Weather View 32 v60,2013-01-04 21:25:00,
2013-01-04 16:30:00,33.6,24.5,29.77,SW,225,3.0,9.0,69,0.01,,,-99.99,Weather View 32 v60,2013-01-04 21:30:00,
2013-01-04 16:40:00,33.4,24.7,29.77,SW,225,1.0,9.0,70,0.01,,,-99.99,Weather View 32 v60,2013-01-04 21:40:00,
2013-01-04 16:50:00,33.2,24.5,29.78,WSW,248,3.0,8.0,70,0.01,,,-99.99,Weather View 32 v60,2013-01-04 21:50:00,
2013-01-04 16:55:00,33.1,24.4,29.78,SW,225,1.0,8.0,70,0.01,,,-99.99,Weather View 32 v60,2013-01-04 21:55:00,
2013-01-04 17:00:00,33.0,24.3,29.78,SSW,203,3.0,8.0,70,0.01,,,-99.99,Weather View 32 v60,2013-01-04 22:00:00,
2013-01-04 17:10:00,32.8,24.4,29.78,WSW,248,3.0,8.0,71,0.01,,,-99.99,Weather View 32 v60,2013-01-04 22:10:00,
2013-01-04 17:20:00,32.5,24.1,29.78,South,180,1.0,7.0,71,0.00,,,-99.99,Weather View 32 v60,2013-01-04 22:20:00,
2013-01-04 17:25:00,32.3,24.3,29.78,WSW,248,3.0,7.0,72,0.00,,,-99.99,Weather View 32 v60,2013-01-04 22:25:00,
2013-01-04 17:35:00,32.0,24.0,29.78,SW,225,1.0,7.0,72,0.00,,,-99.99,Weather View 32 v60,2013-01-04 22:35:00,
2013-01-04 17:40:00,31.9,23.9,29.78,WSW,248,3.0,7.0,72,0.00,,,-99.99,Weather View 32 v60,2013-01-04 22:40:00,
2013-01-04 17:45:00,31.7,24.0,29.78,SSW,203,2.0,7.0,73,0.00,,,-99.99,Weather View 32 v60,2013-01-04 22:45:00,
2013-01-04 17:55:00,31.4,23.7,29.79,WSW,248,1.0,7.0,73,0.00,,,-99.99,Weather View 32 v60,2013-01-04 22:55:00,
2013-01-04 18:00:00,31.3,23.6,29.79,SW,225,2.0,7.0,73,0.00,,,-99.99,Weather View 32 v60,2013-01-04 23:00:00,
2013-01-04 18:10:00,31.2,23.9,29.80,SSW,203,2.0,7.0,74,0.00,,,-99.99,Weather View 32 v60,2013-01-04 23:10:00,
2013-01-04 18:15:00,31.2,23.9,29.79,WSW,248,3.0,7.0,74,0.00,,,-99.99,Weather View 32 v60,2013-01-04 23:15:00,
2013-01-04 18:25:00,31.1,23.8,29.79,SW,225,1.0,7.0,74,0.00,,,-99.99,Weather View 32 v60,2013-01-04 23:25:00,
2013-01-04 18:30:00,31.0,23.7,29.79,SSW,203,1.0,7.0,74,0.00,,,-99.99,Weather View 32 v60,2013-01-04 23:30:00,
2013-01-04 18:40:00,30.8,23.5,29.79,West,270,3.0,7.0,74,0.00,,,-99.99,Weather View 32 v60,2013-01-04 23:40:00,
2013-01-04 18:45:00,30.7,23.4,29.79,WSW,248,2.0,7.0,74,0.00,,,-99.99,Weather View 32 v60,2013-01-04 23:45:00,
2013-01-04 18:55:00,30.4,23.4,29.79,SW,225,1.0,7.0,75,0.00,,,-99.99,Weather View 32 v60,2013-01-04 23:55:00,
2013-01-04 19:00:00,30.3,23.3,29.79,SW,225,1.0,7.0,75,0.00,,,-99.99,Weather View 32 v60,2013-01-05 00:00:00,
2013-01-04 19:10:00,30.1,23.1,29.79,SW,225,1.0,7.0,75,0.00,,,-99.99,Weather View 32 v60,2013-01-05 00:10:00,
2013-01-04 19:15:00,30.0,23.0,29.79,SW,225,3.0,7.0,75,0.00,,,-99.99,Weather View 32 v60,2013-01-05 00:15:00,
2013-01-04 19:25:00,30.0,23.4,29.79,West,270,1.0,6.0,76,0.00,,,-99.99,Weather View 32 v60,2013-01-05 00:25:00,
2013-01-04 19:30:00,29.9,23.3,29.79,SSW,203,3.0,6.0,76,0.00,,,-99.99,Weather View 32 v60,2013-01-05 00:30:00,
2013-01-04 19:35:00,29.8,23.2,29.79,WSW,248,3.0,6.0,76,0.00,,,-99.99,Weather View 32 v60,2013-01-05 00:35:00,
2013-01-04 19:40:00,29.8,23.2,29.79,WSW,248,3.0,6.0,76,0.00,,,-99.99,Weather View 32 v60,2013-01-05 00:40:00,
2013-01-04 19:49:00,29.7,22.7,29.79,WSW,248,2.0,7.0,75,0.00,,,-99.99,Weather View 32 v60,2013-01-05 00:49:00,
2013-01-04 19:55:00,29.7,22.7,29.79,SW,225,4.0,7.0,75,0.00,,,-99.99,Weather View 32 v60,2013-01-05 00:55:00,
2013-01-04 20:00:00,29.7,22.7,29.79,West,270,2.0,7.0,75,0.00,,,-99.99,Weather View 32 v60,2013-01-05 01:00:00,
2013-01-04 20:10:00,29.5,22.6,29.79,SSW,203,3.0,7.0,75,0.00,,,-99.99,Weather View 32 v60,2013-01-05 01:10:00,
2013-01-04 20:20:00,29.2,22.6,29.79,SW,225,1.0,7.0,76,0.00,,,-99.99,Weather View 32 v60,2013-01-05 01:20:00,
2013-01-04 20:25:00,29.1,22.5,29.79,SW,225,2.0,7.0,76,0.00,,,-99.99,Weather View 32 v60,2013-01-05 01:25:00,
2013-01-04 20:30:00,29.0,22.4,29.79,SW,225,2.0,7.0,76,0.00,,,-99.99,Weather View 32 v60,2013-01-05 01:30:00,
2013-01-04 20:40:00,28.8,22.2,29.79,SW,225,2.0,7.0,76,0.00,,,-99.99,Weather View 32 v60,2013-01-05 01:40:00,
2013-01-04 20:45:00,28.7,22.4,29.79,SSW,203,1.0,7.0,77,0.00,,,-99.99,Weather View 32 v60,2013-01-05 01:45:00,
2013-01-04 20:55:00,28.8,22.5,29.79,SW,225,1.0,7.0,77,0.00,,,-99.99,Weather View 32 v60,2013-01-05 01:55:00,
2013-01-04 21:04:00,29.1,22.8,29.79,West,270,2.0,6.0,77,0.00,,,-99.99,Weather View 32 v60,2013-01-05 02:04:00,
2013-01-04 21:10:00,29.3,23.0,29.79,SW,225,4.0,6.0,77,0.00,,,-99.99,Weather View 32 v60,2013-01-05 02:10:00,
2013-01-04 21:15:00,29.6,23.3,29.79,SW,225,6.0,6.0,77,0.00,,,-99.99,Weather View 32 v60,2013-01-05 02:15:00,
2013-01-04 21:25:00,30.2,23.9,29.79,WNW,293,3.0,7.0,77,0.00,,,-99.99,Weather View 32 v60,2013-01-05 02:25:00,
2013-01-04 21:34:00,30.5,23.8,29.79,SW,225,2.0,7.0,76,0.00,,,-99.99,Weather View 32 v60,2013-01-05 02:34:00,
2013-01-04 21:40:00,30.6,23.6,29.79,WSW,248,2.0,7.0,75,0.00,,,-99.99,Weather View 32 v60,2013-01-05 02:40:00,
2013-01-04 21:45:00,30.7,23.7,29.79,SW,225,2.0,7.0,75,0.00,,,-99.99,Weather View 32 v60,2013-01-05 02:45:00,
2013-01-04 21:55:00,30.9,23.6,29.79,South,180,1.0,7.0,74,0.00,,,-99.99,Weather View 32 v60,2013-01-05 02:55:00,
2013-01-04 22:00:00,31.0,23.7,29.79,SSW,203,4.0,8.0,74,0.00,,,-99.99,Weather View 32 v60,2013-01-05 03:00:00,
2013-01-04 22:10:00,31.1,23.8,29.79,WNW,293,3.0,8.0,74,0.00,,,-99.99,Weather View 32 v60,2013-01-05 03:10:00,
2013-01-04 22:15:00,31.2,23.6,29.80,SW,225,3.0,8.0,73,0.00,,,-99.99,Weather View 32 v60,2013-01-05 03:15:00,
2013-01-04 22:20:00,31.3,23.6,29.80,SW,225,3.0,8.0,73,0.00,,,-99.99,Weather View 32 v60,2013-01-05 03:20:00,
2013-01-04 22:30:00,31.3,23.6,29.80,WSW,248,3.0,8.0,73,0.00,,,-99.99,Weather View 32 v60,2013-01-05 03:30:00,
2013-01-04 22:40:00,31.4,23.7,29.80,West,270,1.0,8.0,73,0.00,,,-99.99,Weather View 32 v60,2013-01-05 03:40:00,
2013-01-04 22:45:00,31.3,23.6,29.80,SW,225,1.0,8.0,73,0.00,,,-99.99,Weather View 32 v60,2013-01-05 03:45:00,
2013-01-04 22:55:00,31.2,23.6,29.80,WSW,248,3.0,8.0,73,0.00,,,-99.99,Weather View 32 v60,2013-01-05 03:55:00,
2013-01-04 23:05:00,31.1,23.5,29.79,SW,225,1.0,7.0,73,0.00,,,-99.99,Weather View 32 v60,2013-01-05 04:05:00,
2013-01-04 23:10:00,30.8,22.8,29.80,SSW,203,3.0,8.0,72,0.00,,,-99.99,Weather View 32 v60,2013-01-05 04:10:00,
2013-01-04 23:15:00,31.0,23.4,29.79,SSW,203,1.0,7.0,73,0.00,,,-99.99,Weather View 32 v60,2013-01-05 04:15:00,
2013-01-04 23:20:00,30.7,22.7,29.80,SW,225,2.0,8.0,72,0.00,,,-99.99,Weather View 32 v60,2013-01-05 04:20:00,
2013-01-04 23:25:00,30.9,22.9,29.79,SSW,203,1.0,7.0,72,0.00,,,-99.99,Weather View 32 v60,2013-01-05 04:25:00,
2013-01-04 23:30:00,30.7,22.7,29.80,SSW,203,2.0,8.0,72,0.00,,,-99.99,Weather View 32 v60,2013-01-05 04:30:00,
2013-01-04 23:35:00,31.0,22.7,29.79,SSW,203,6.0,7.0,71,0.00,,,-99.99,Weather View 32 v60,2013-01-05 04:35:00,
2013-01-04 23:40:00,31.0,22.7,29.79,SW,225,7.0,7.0,71,0.00,,,-99.99,Weather View 32 v60,2013-01-05 04:40:00,
2013-01-04 23:45:00,31.0,22.7,29.79,WSW,248,2.0,8.0,71,0.00,,,-99.99,Weather View 32 v60,2013-01-05 04:45:00,
2013-01-04 23:50:00,30.8,23.2,29.80,SW,225,3.0,7.0,73,0.00,,,-99.99,Weather View 32 v60,2013-01-05 04:50:00,
2013-01-04 23:55:00,30.9,22.6,29.79,SSW,203,1.0,8.0,71,0.00,,,-99.99,Weather View 32 v60,2013-01-05 04:55:00,